sensor_id;sensor_type;location;lat;lon;timestamp;P1;durP1;ratioP1;P2;durP2;ratioP2
8421;SDS011;4248;48.196;10.924;2023-03-02T00:00:32;26.90;;;14.73;;
8421;SDS011;4248;48.196;10.924;2023-03-02T00:02:58;27.60;;;14.13;;
8421;SDS011;4248;48.196;10.924;2023-03-02T00:05:26;33.47;;;14.95;;
8421;SDS011;4248;48.196;10.924;2023-03-02T00:07:53;29.95;;;15.00;;
8421;SDS011;4248;48.196;10.924;2023-03-02T00:10:19;33.43;;;14.73;;
8421;SDS011;4248;48.196;10.924;2023-03-02T00:12:44;31.27;;;15.10;;
8421;SDS011;4248;48.196;10.924;2023-03-02T00:15:10;31.45;;;16.42;;
8421;SDS011;4248;48.196;10.924;2023-03-02T00:17:36;30.10;;;15.33;;
8421;SDS011;4248;48.196;10.924;2023-03-02T00:20:02;35.60;;;15.50;;
8421;SDS011;4248;48.196;10.924;2023-03-02T00:22:34;32.00;;;14.95;;
8421;SDS011;4248;48.196;10.924;2023-03-02T00:25:01;38.20;;;16.60;;
8421;SDS011;4248;48.196;10.924;2023-03-02T00:27:27;31.95;;;15.48;;
8421;SDS011;4248;48.196;10.924;2023-03-02T00:29:54;33.40;;;15.82;;
8421;SDS011;4248;48.196;10.924;2023-03-02T00:32:20;29.20;;;15.43;;
8421;SDS011;4248;48.196;10.924;2023-03-02T00:34:46;33.80;;;16.17;;
8421;SDS011;4248;48.196;10.924;2023-03-02T00:37:11;35.37;;;16.47;;
8421;SDS011;4248;48.196;10.924;2023-03-02T00:39:37;28.83;;;15.50;;
8421;SDS011;4248;48.196;10.924;2023-03-02T00:42:02;31.10;;;14.97;;
8421;SDS011;4248;48.196;10.924;2023-03-02T00:44:28;32.47;;;13.97;;
8421;SDS011;4248;48.196;10.924;2023-03-02T00:46:53;31.83;;;15.73;;
8421;SDS011;4248;48.196;10.924;2023-03-02T00:49:19;28.60;;;15.93;;
8421;SDS011;4248;48.196;10.924;2023-03-02T00:51:45;33.37;;;15.40;;
8421;SDS011;4248;48.196;10.924;2023-03-02T00:54:10;26.43;;;14.20;;
8421;SDS011;4248;48.196;10.924;2023-03-02T00:56:36;35.37;;;14.77;;
8421;SDS011;4248;48.196;10.924;2023-03-02T00:59:05;30.27;;;15.93;;
8421;SDS011;4248;48.196;10.924;2023-03-02T01:01:35;33.38;;;17.05;;
8421;SDS011;4248;48.196;10.924;2023-03-02T01:04:01;28.95;;;14.60;;
8421;SDS011;4248;48.196;10.924;2023-03-02T01:06:27;32.03;;;15.70;;
8421;SDS011;4248;48.196;10.924;2023-03-02T01:08:53;32.17;;;15.70;;
8421;SDS011;4248;48.196;10.924;2023-03-02T01:11:20;30.05;;;15.75;;
8421;SDS011;4248;48.196;10.924;2023-03-02T01:13:46;29.25;;;15.57;;
8421;SDS011;4248;48.196;10.924;2023-03-02T01:16:12;32.13;;;15.68;;
8421;SDS011;4248;48.196;10.924;2023-03-02T01:18:39;31.85;;;15.15;;
8421;SDS011;4248;48.196;10.924;2023-03-02T01:21:05;30.67;;;15.73;;
8421;SDS011;4248;48.196;10.924;2023-03-02T01:23:33;32.10;;;15.48;;
8421;SDS011;4248;48.196;10.924;2023-03-02T01:25:59;31.80;;;14.90;;
8421;SDS011;4248;48.196;10.924;2023-03-02T01:28:24;33.87;;;14.50;;
8421;SDS011;4248;48.196;10.924;2023-03-02T01:30:50;34.07;;;17.47;;
8421;SDS011;4248;48.196;10.924;2023-03-02T01:33:16;34.93;;;16.90;;
8421;SDS011;4248;48.196;10.924;2023-03-02T01:35:43;35.20;;;18.27;;
8421;SDS011;4248;48.196;10.924;2023-03-02T01:38:10;38.15;;;17.92;;
8421;SDS011;4248;48.196;10.924;2023-03-02T01:40:35;33.27;;;15.50;;
8421;SDS011;4248;48.196;10.924;2023-03-02T01:43:01;33.13;;;17.17;;
8421;SDS011;4248;48.196;10.924;2023-03-02T01:45:45;30.45;;;15.77;;
8421;SDS011;4248;48.196;10.924;2023-03-02T01:48:16;34.30;;;15.90;;
8421;SDS011;4248;48.196;10.924;2023-03-02T01:51:09;36.17;;;16.65;;
8421;SDS011;4248;48.196;10.924;2023-03-02T01:53:39;38.50;;;16.50;;
8421;SDS011;4248;48.196;10.924;2023-03-02T01:56:10;31.02;;;15.93;;
8421;SDS011;4248;48.196;10.924;2023-03-02T01:58:41;32.03;;;16.38;;
8421;SDS011;4248;48.196;10.924;2023-03-02T02:01:08;34.63;;;16.63;;
8421;SDS011;4248;48.196;10.924;2023-03-02T02:03:43;32.50;;;16.48;;
8421;SDS011;4248;48.196;10.924;2023-03-02T02:06:13;36.75;;;16.17;;
8421;SDS011;4248;48.196;10.924;2023-03-02T02:08:46;40.70;;;17.90;;
8421;SDS011;4248;48.196;10.924;2023-03-02T02:11:13;30.42;;;16.17;;
8421;SDS011;4248;48.196;10.924;2023-03-02T02:13:39;39.57;;;18.10;;
8421;SDS011;4248;48.196;10.924;2023-03-02T02:16:05;40.93;;;18.10;;
8421;SDS011;4248;48.196;10.924;2023-03-02T02:18:31;39.63;;;17.88;;
8421;SDS011;4248;48.196;10.924;2023-03-02T02:20:59;38.08;;;17.08;;
8421;SDS011;4248;48.196;10.924;2023-03-02T02:28:54;33.92;;;15.73;;
8421;SDS011;4248;48.196;10.924;2023-03-02T02:34:16;34.08;;;15.70;;
8421;SDS011;4248;48.196;10.924;2023-03-02T02:36:55;30.23;;;15.88;;
8421;SDS011;4248;48.196;10.924;2023-03-02T02:39:29;37.65;;;15.95;;
8421;SDS011;4248;48.196;10.924;2023-03-02T02:41:58;34.30;;;15.40;;
8421;SDS011;4248;48.196;10.924;2023-03-02T02:44:27;32.88;;;15.98;;
8421;SDS011;4248;48.196;10.924;2023-03-02T02:46:54;31.17;;;16.45;;
8421;SDS011;4248;48.196;10.924;2023-03-02T02:49:25;32.60;;;15.63;;
8421;SDS011;4248;48.196;10.924;2023-03-02T02:51:56;32.95;;;16.25;;
8421;SDS011;4248;48.196;10.924;2023-03-02T02:54:22;30.05;;;15.82;;
8421;SDS011;4248;48.196;10.924;2023-03-02T02:56:49;29.75;;;15.75;;
8421;SDS011;4248;48.196;10.924;2023-03-02T02:59:18;36.75;;;16.02;;
8421;SDS011;4248;48.196;10.924;2023-03-02T03:01:49;33.15;;;15.20;;
8421;SDS011;4248;48.196;10.924;2023-03-02T03:04:25;27.35;;;14.13;;
8421;SDS011;4248;48.196;10.924;2023-03-02T03:06:55;32.50;;;15.63;;
8421;SDS011;4248;48.196;10.924;2023-03-02T03:09:25;31.70;;;16.83;;
8421;SDS011;4248;48.196;10.924;2023-03-02T03:11:52;39.35;;;16.02;;
8421;SDS011;4248;48.196;10.924;2023-03-02T03:14:25;33.38;;;17.08;;
8421;SDS011;4248;48.196;10.924;2023-03-02T03:16:58;28.00;;;15.23;;
8421;SDS011;4248;48.196;10.924;2023-03-02T03:19:28;31.92;;;16.00;;
8421;SDS011;4248;48.196;10.924;2023-03-02T03:21:59;32.88;;;15.95;;
8421;SDS011;4248;48.196;10.924;2023-03-02T03:24:26;27.45;;;15.25;;
8421;SDS011;4248;48.196;10.924;2023-03-02T03:26:53;30.85;;;16.27;;
8421;SDS011;4248;48.196;10.924;2023-03-02T03:29:21;33.85;;;16.83;;
8421;SDS011;4248;48.196;10.924;2023-03-02T03:31:48;31.10;;;16.20;;
8421;SDS011;4248;48.196;10.924;2023-03-02T03:34:18;36.20;;;16.90;;
8421;SDS011;4248;48.196;10.924;2023-03-02T03:36:44;36.20;;;18.10;;
8421;SDS011;4248;48.196;10.924;2023-03-02T03:39:10;32.00;;;15.90;;
8421;SDS011;4248;48.196;10.924;2023-03-02T03:41:36;32.28;;;16.67;;
8421;SDS011;4248;48.196;10.924;2023-03-02T03:44:02;33.83;;;17.00;;
8421;SDS011;4248;48.196;10.924;2023-03-02T03:46:28;33.63;;;16.08;;
8421;SDS011;4248;48.196;10.924;2023-03-02T03:48:54;26.85;;;15.65;;
8421;SDS011;4248;48.196;10.924;2023-03-02T03:51:20;33.05;;;16.45;;
8421;SDS011;4248;48.196;10.924;2023-03-02T03:53:45;32.90;;;16.83;;
8421;SDS011;4248;48.196;10.924;2023-03-02T03:56:31;31.85;;;15.65;;
8421;SDS011;4248;48.196;10.924;2023-03-02T03:58:58;35.30;;;17.77;;
8421;SDS011;4248;48.196;10.924;2023-03-02T04:04:11;29.52;;;15.23;;
8421;SDS011;4248;48.196;10.924;2023-03-02T04:06:43;33.78;;;16.45;;
8421;SDS011;4248;48.196;10.924;2023-03-02T04:09:09;29.53;;;15.33;;
8421;SDS011;4248;48.196;10.924;2023-03-02T04:11:37;27.33;;;14.85;;
8421;SDS011;4248;48.196;10.924;2023-03-02T04:14:05;34.13;;;15.45;;
8421;SDS011;4248;48.196;10.924;2023-03-02T04:16:31;27.90;;;15.20;;
8421;SDS011;4248;48.196;10.924;2023-03-02T04:18:57;28.80;;;15.52;;
8421;SDS011;4248;48.196;10.924;2023-03-02T04:21:24;27.17;;;13.98;;
8421;SDS011;4248;48.196;10.924;2023-03-02T04:23:50;26.52;;;15.30;;
8421;SDS011;4248;48.196;10.924;2023-03-02T04:26:15;28.27;;;14.70;;
8421;SDS011;4248;48.196;10.924;2023-03-02T04:28:42;31.95;;;15.32;;
8421;SDS011;4248;48.196;10.924;2023-03-02T04:31:07;32.87;;;15.90;;
8421;SDS011;4248;48.196;10.924;2023-03-02T04:33:33;29.80;;;16.00;;
8421;SDS011;4248;48.196;10.924;2023-03-02T04:35:58;31.90;;;16.33;;
8421;SDS011;4248;48.196;10.924;2023-03-02T04:38:24;31.20;;;15.93;;
8421;SDS011;4248;48.196;10.924;2023-03-02T04:40:54;25.70;;;14.02;;
8421;SDS011;4248;48.196;10.924;2023-03-02T04:43:23;34.55;;;16.15;;
8421;SDS011;4248;48.196;10.924;2023-03-02T04:45:52;33.33;;;15.23;;
8421;SDS011;4248;48.196;10.924;2023-03-02T04:48:18;34.78;;;15.35;;
8421;SDS011;4248;48.196;10.924;2023-03-02T04:50:44;28.15;;;13.38;;
8421;SDS011;4248;48.196;10.924;2023-03-02T04:53:10;31.03;;;15.87;;
8421;SDS011;4248;48.196;10.924;2023-03-02T04:55:36;36.20;;;16.60;;
8421;SDS011;4248;48.196;10.924;2023-03-02T04:58:02;32.28;;;17.63;;
8421;SDS011;4248;48.196;10.924;2023-03-02T05:00:28;31.90;;;16.90;;
8421;SDS011;4248;48.196;10.924;2023-03-02T05:02:54;32.80;;;16.63;;
8421;SDS011;4248;48.196;10.924;2023-03-02T05:05:21;31.47;;;16.87;;
8421;SDS011;4248;48.196;10.924;2023-03-02T05:07:48;36.50;;;19.65;;
8421;SDS011;4248;48.196;10.924;2023-03-02T05:10:15;34.72;;;18.25;;
8421;SDS011;4248;48.196;10.924;2023-03-02T05:12:42;32.70;;;16.02;;
8421;SDS011;4248;48.196;10.924;2023-03-02T05:15:34;35.05;;;16.63;;
8421;SDS011;4248;48.196;10.924;2023-03-02T05:18:01;34.75;;;18.33;;
8421;SDS011;4248;48.196;10.924;2023-03-02T05:20:28;30.65;;;16.25;;
8421;SDS011;4248;48.196;10.924;2023-03-02T05:22:59;29.52;;;17.10;;
8421;SDS011;4248;48.196;10.924;2023-03-02T05:25:28;29.45;;;14.80;;
8421;SDS011;4248;48.196;10.924;2023-03-02T05:27:55;31.20;;;15.05;;
8421;SDS011;4248;48.196;10.924;2023-03-02T05:30:22;33.95;;;16.45;;
8421;SDS011;4248;48.196;10.924;2023-03-02T05:32:48;34.33;;;17.25;;
8421;SDS011;4248;48.196;10.924;2023-03-02T05:35:15;31.98;;;16.17;;
8421;SDS011;4248;48.196;10.924;2023-03-02T05:37:41;37.45;;;18.08;;
8421;SDS011;4248;48.196;10.924;2023-03-02T05:40:09;34.05;;;17.65;;
8421;SDS011;4248;48.196;10.924;2023-03-02T05:42:37;30.45;;;16.35;;
8421;SDS011;4248;48.196;10.924;2023-03-02T05:45:05;27.98;;;15.65;;
8421;SDS011;4248;48.196;10.924;2023-03-02T05:47:32;28.73;;;16.75;;
8421;SDS011;4248;48.196;10.924;2023-03-02T05:49:58;32.50;;;16.23;;
8421;SDS011;4248;48.196;10.924;2023-03-02T05:52:24;27.33;;;15.73;;
8421;SDS011;4248;48.196;10.924;2023-03-02T05:54:49;35.65;;;17.50;;
8421;SDS011;4248;48.196;10.924;2023-03-02T05:57:15;29.03;;;15.60;;
8421;SDS011;4248;48.196;10.924;2023-03-02T05:59:41;34.10;;;17.60;;
8421;SDS011;4248;48.196;10.924;2023-03-02T06:02:06;31.63;;;17.63;;
8421;SDS011;4248;48.196;10.924;2023-03-02T06:04:32;31.43;;;16.40;;
8421;SDS011;4248;48.196;10.924;2023-03-02T06:06:57;31.77;;;16.50;;
8421;SDS011;4248;48.196;10.924;2023-03-02T06:09:23;32.67;;;16.97;;
8421;SDS011;4248;48.196;10.924;2023-03-02T06:11:49;31.23;;;16.70;;
8421;SDS011;4248;48.196;10.924;2023-03-02T06:14:14;31.80;;;16.60;;
8421;SDS011;4248;48.196;10.924;2023-03-02T06:16:40;35.07;;;17.33;;
8421;SDS011;4248;48.196;10.924;2023-03-02T06:19:05;31.50;;;17.60;;
8421;SDS011;4248;48.196;10.924;2023-03-02T06:21:31;34.15;;;17.15;;
8421;SDS011;4248;48.196;10.924;2023-03-02T06:23:57;35.20;;;18.50;;
8421;SDS011;4248;48.196;10.924;2023-03-02T06:26:23;35.37;;;19.63;;
8421;SDS011;4248;48.196;10.924;2023-03-02T06:28:48;35.27;;;18.60;;
8421;SDS011;4248;48.196;10.924;2023-03-02T06:31:14;33.07;;;17.83;;
8421;SDS011;4248;48.196;10.924;2023-03-02T06:33:39;38.13;;;18.90;;
8421;SDS011;4248;48.196;10.924;2023-03-02T06:36:05;34.70;;;17.80;;
8421;SDS011;4248;48.196;10.924;2023-03-02T06:38:30;34.33;;;17.80;;
8421;SDS011;4248;48.196;10.924;2023-03-02T06:40:56;33.57;;;17.80;;
8421;SDS011;4248;48.196;10.924;2023-03-02T06:43:22;34.73;;;18.40;;
8421;SDS011;4248;48.196;10.924;2023-03-02T06:45:47;33.37;;;17.00;;
8421;SDS011;4248;48.196;10.924;2023-03-02T06:48:15;40.88;;;21.40;;
8421;SDS011;4248;48.196;10.924;2023-03-02T06:50:40;40.60;;;20.13;;
8421;SDS011;4248;48.196;10.924;2023-03-02T06:53:06;39.40;;;18.23;;
8421;SDS011;4248;48.196;10.924;2023-03-02T06:55:31;31.93;;;16.50;;
8421;SDS011;4248;48.196;10.924;2023-03-02T06:57:57;30.43;;;17.70;;
8421;SDS011;4248;48.196;10.924;2023-03-02T07:00:22;32.93;;;16.40;;
8421;SDS011;4248;48.196;10.924;2023-03-02T07:02:50;37.22;;;18.55;;
8421;SDS011;4248;48.196;10.924;2023-03-02T07:05:16;34.85;;;18.33;;
8421;SDS011;4248;48.196;10.924;2023-03-02T07:07:42;35.10;;;16.42;;
8421;SDS011;4248;48.196;10.924;2023-03-02T07:10:08;37.17;;;16.27;;
8421;SDS011;4248;48.196;10.924;2023-03-02T07:12:36;39.10;;;18.93;;
8421;SDS011;4248;48.196;10.924;2023-03-02T07:15:01;32.53;;;17.40;;
8421;SDS011;4248;48.196;10.924;2023-03-02T07:17:28;35.55;;;18.88;;
8421;SDS011;4248;48.196;10.924;2023-03-02T07:19:53;36.03;;;18.00;;
8421;SDS011;4248;48.196;10.924;2023-03-02T07:22:19;37.20;;;19.20;;
8421;SDS011;4248;48.196;10.924;2023-03-02T07:24:45;30.60;;;16.85;;
8421;SDS011;4248;48.196;10.924;2023-03-02T07:27:11;30.10;;;17.50;;
8421;SDS011;4248;48.196;10.924;2023-03-02T07:29:36;33.17;;;16.30;;
8421;SDS011;4248;48.196;10.924;2023-03-02T07:32:02;27.00;;;14.00;;
8421;SDS011;4248;48.196;10.924;2023-03-02T07:34:28;24.53;;;13.97;;
8421;SDS011;4248;48.196;10.924;2023-03-02T07:36:53;26.10;;;15.17;;
8421;SDS011;4248;48.196;10.924;2023-03-02T07:39:19;27.17;;;14.07;;
8421;SDS011;4248;48.196;10.924;2023-03-02T07:41:45;25.00;;;13.07;;
8421;SDS011;4248;48.196;10.924;2023-03-02T07:44:11;25.20;;;14.50;;
8421;SDS011;4248;48.196;10.924;2023-03-02T07:46:36;26.70;;;15.17;;
8421;SDS011;4248;48.196;10.924;2023-03-02T07:49:02;26.47;;;14.73;;
8421;SDS011;4248;48.196;10.924;2023-03-02T07:51:28;29.23;;;15.77;;
8421;SDS011;4248;48.196;10.924;2023-03-02T07:53:54;27.63;;;14.80;;
8421;SDS011;4248;48.196;10.924;2023-03-02T07:56:19;24.90;;;14.47;;
8421;SDS011;4248;48.196;10.924;2023-03-02T07:58:45;29.37;;;14.30;;
8421;SDS011;4248;48.196;10.924;2023-03-02T08:01:11;28.37;;;14.27;;
8421;SDS011;4248;48.196;10.924;2023-03-02T08:03:37;23.27;;;13.87;;
8421;SDS011;4248;48.196;10.924;2023-03-02T08:06:09;28.00;;;15.00;;
8421;SDS011;4248;48.196;10.924;2023-03-02T08:08:36;27.17;;;14.83;;
8421;SDS011;4248;48.196;10.924;2023-03-02T08:11:02;26.83;;;13.37;;
8421;SDS011;4248;48.196;10.924;2023-03-02T08:13:32;24.63;;;14.60;;
8421;SDS011;4248;48.196;10.924;2023-03-02T08:15:58;25.03;;;14.77;;
8421;SDS011;4248;48.196;10.924;2023-03-02T08:18:25;27.07;;;14.43;;
8421;SDS011;4248;48.196;10.924;2023-03-02T08:20:51;26.07;;;14.70;;
8421;SDS011;4248;48.196;10.924;2023-03-02T08:23:17;26.80;;;13.75;;
8421;SDS011;4248;48.196;10.924;2023-03-02T08:25:43;29.73;;;14.20;;
8421;SDS011;4248;48.196;10.924;2023-03-02T08:28:09;31.97;;;15.00;;
8421;SDS011;4248;48.196;10.924;2023-03-02T08:30:34;23.27;;;13.77;;
8421;SDS011;4248;48.196;10.924;2023-03-02T08:33:00;29.13;;;14.03;;
8421;SDS011;4248;48.196;10.924;2023-03-02T08:35:25;26.57;;;14.00;;
8421;SDS011;4248;48.196;10.924;2023-03-02T08:37:51;29.10;;;14.63;;
8421;SDS011;4248;48.196;10.924;2023-03-02T08:40:18;25.13;;;13.60;;
8421;SDS011;4248;48.196;10.924;2023-03-02T08:42:43;25.30;;;15.10;;
8421;SDS011;4248;48.196;10.924;2023-03-02T08:45:09;25.43;;;15.80;;
8421;SDS011;4248;48.196;10.924;2023-03-02T08:47:34;24.73;;;13.17;;
8421;SDS011;4248;48.196;10.924;2023-03-02T08:50:00;25.10;;;13.70;;
8421;SDS011;4248;48.196;10.924;2023-03-02T08:52:26;30.83;;;14.30;;
8421;SDS011;4248;48.196;10.924;2023-03-02T08:54:51;24.17;;;13.47;;
8421;SDS011;4248;48.196;10.924;2023-03-02T08:57:17;21.00;;;12.63;;
8421;SDS011;4248;48.196;10.924;2023-03-02T08:59:43;23.47;;;13.63;;
8421;SDS011;4248;48.196;10.924;2023-03-02T09:02:11;27.93;;;15.17;;
8421;SDS011;4248;48.196;10.924;2023-03-02T09:04:37;22.83;;;12.27;;
8421;SDS011;4248;48.196;10.924;2023-03-02T09:07:03;25.67;;;13.37;;
8421;SDS011;4248;48.196;10.924;2023-03-02T09:09:28;22.13;;;12.87;;
8421;SDS011;4248;48.196;10.924;2023-03-02T09:11:54;22.83;;;12.93;;
8421;SDS011;4248;48.196;10.924;2023-03-02T09:14:19;25.47;;;14.10;;
8421;SDS011;4248;48.196;10.924;2023-03-02T09:16:45;26.73;;;14.50;;
8421;SDS011;4248;48.196;10.924;2023-03-02T09:19:11;29.40;;;13.80;;
8421;SDS011;4248;48.196;10.924;2023-03-02T09:21:37;26.40;;;14.17;;
8421;SDS011;4248;48.196;10.924;2023-03-02T09:24:03;28.37;;;14.17;;
8421;SDS011;4248;48.196;10.924;2023-03-02T09:26:29;28.57;;;16.60;;
8421;SDS011;4248;48.196;10.924;2023-03-02T09:28:55;26.23;;;14.20;;
8421;SDS011;4248;48.196;10.924;2023-03-02T09:31:21;27.17;;;15.97;;
8421;SDS011;4248;48.196;10.924;2023-03-02T09:33:46;28.23;;;15.40;;
8421;SDS011;4248;48.196;10.924;2023-03-02T09:36:14;27.93;;;15.33;;
8421;SDS011;4248;48.196;10.924;2023-03-02T09:38:44;21.83;;;12.80;;
8421;SDS011;4248;48.196;10.924;2023-03-02T09:44:03;31.90;;;14.50;;
8421;SDS011;4248;48.196;10.924;2023-03-02T09:46:58;24.87;;;13.43;;
8421;SDS011;4248;48.196;10.924;2023-03-02T09:54:52;25.50;;;15.83;;
8421;SDS011;4248;48.196;10.924;2023-03-02T09:57:31;32.67;;;16.87;;
8421;SDS011;4248;48.196;10.924;2023-03-02T10:00:05;30.40;;;15.90;;
8421;SDS011;4248;48.196;10.924;2023-03-02T10:02:43;33.90;;;17.20;;
8421;SDS011;4248;48.196;10.924;2023-03-02T10:05:15;30.83;;;16.83;;
8421;SDS011;4248;48.196;10.924;2023-03-02T10:07:52;28.40;;;16.07;;
8421;SDS011;4248;48.196;10.924;2023-03-02T10:26:56;32.70;;;16.90;;
8421;SDS011;4248;48.196;10.924;2023-03-02T10:32:12;31.07;;;17.47;;
8421;SDS011;4248;48.196;10.924;2023-03-02T10:34:44;31.10;;;16.83;;
8421;SDS011;4248;48.196;10.924;2023-03-02T10:37:17;32.90;;;18.03;;
8421;SDS011;4248;48.196;10.924;2023-03-02T10:39:49;33.90;;;18.47;;
8421;SDS011;4248;48.196;10.924;2023-03-02T10:42:26;30.43;;;17.70;;
8421;SDS011;4248;48.196;10.924;2023-03-02T10:44:55;31.23;;;17.43;;
8421;SDS011;4248;48.196;10.924;2023-03-02T10:47:37;45.63;;;19.33;;
8421;SDS011;4248;48.196;10.924;2023-03-02T10:50:03;31.40;;;17.57;;
8421;SDS011;4248;48.196;10.924;2023-03-02T10:52:28;36.57;;;19.67;;
8421;SDS011;4248;48.196;10.924;2023-03-02T10:55:01;35.63;;;19.00;;
8421;SDS011;4248;48.196;10.924;2023-03-02T10:57:40;36.03;;;18.77;;
8421;SDS011;4248;48.196;10.924;2023-03-02T11:00:15;33.00;;;19.07;;
8421;SDS011;4248;48.196;10.924;2023-03-02T11:02:52;32.53;;;18.30;;
8421;SDS011;4248;48.196;10.924;2023-03-02T11:05:27;31.63;;;18.43;;
8421;SDS011;4248;48.196;10.924;2023-03-02T11:07:59;36.93;;;18.97;;
8421;SDS011;4248;48.196;10.924;2023-03-02T11:10:38;34.07;;;18.50;;
8421;SDS011;4248;48.196;10.924;2023-03-02T11:13:26;33.97;;;20.00;;
8421;SDS011;4248;48.196;10.924;2023-03-02T11:15:58;34.87;;;19.50;;
8421;SDS011;4248;48.196;10.924;2023-03-02T11:22:17;35.87;;;20.70;;
8421;SDS011;4248;48.196;10.924;2023-03-02T11:24:20;35.77;;;20.50;;
8421;SDS011;4248;48.196;10.924;2023-03-02T11:26:54;35.67;;;20.47;;
8421;SDS011;4248;48.196;10.924;2023-03-02T11:32:03;34.03;;;19.73;;
8421;SDS011;4248;48.196;10.924;2023-03-02T11:34:44;35.23;;;20.00;;
8421;SDS011;4248;48.196;10.924;2023-03-02T11:37:44;34.63;;;19.43;;
8421;SDS011;4248;48.196;10.924;2023-03-02T11:42:55;32.87;;;19.80;;
8421;SDS011;4248;48.196;10.924;2023-03-02T11:45:24;33.70;;;20.37;;
8421;SDS011;4248;48.196;10.924;2023-03-02T11:50:31;32.70;;;20.23;;
8421;SDS011;4248;48.196;10.924;2023-03-02T11:53:02;34.97;;;18.97;;
8421;SDS011;4248;48.196;10.924;2023-03-02T11:55:32;37.10;;;20.53;;
8421;SDS011;4248;48.196;10.924;2023-03-02T11:58:04;34.83;;;19.33;;
8421;SDS011;4248;48.196;10.924;2023-03-02T12:00:48;34.73;;;19.87;;
8421;SDS011;4248;48.196;10.924;2023-03-02T12:05:41;34.23;;;19.07;;
8421;SDS011;4248;48.196;10.924;2023-03-02T12:13:26;42.00;;;20.23;;
8421;SDS011;4248;48.196;10.924;2023-03-02T12:16:17;31.43;;;16.33;;
8421;SDS011;4248;48.196;10.924;2023-03-02T12:18:48;33.33;;;18.20;;
8421;SDS011;4248;48.196;10.924;2023-03-02T12:21:16;35.23;;;18.90;;
8421;SDS011;4248;48.196;10.924;2023-03-02T12:31:23;30.50;;;19.50;;
8421;SDS011;4248;48.196;10.924;2023-03-02T12:33:50;29.57;;;17.97;;
8421;SDS011;4248;48.196;10.924;2023-03-02T12:36:28;33.63;;;17.37;;
8421;SDS011;4248;48.196;10.924;2023-03-02T12:47:35;40.20;;;22.50;;
8421;SDS011;4248;48.196;10.924;2023-03-02T12:50:13;36.53;;;22.60;;
8421;SDS011;4248;48.196;10.924;2023-03-02T12:52:55;33.40;;;19.90;;
8421;SDS011;4248;48.196;10.924;2023-03-02T12:55:22;36.47;;;20.67;;
8421;SDS011;4248;48.196;10.924;2023-03-02T12:57:59;37.43;;;19.83;;
8421;SDS011;4248;48.196;10.924;2023-03-02T13:00:26;39.20;;;21.80;;
8421;SDS011;4248;48.196;10.924;2023-03-02T13:02:55;33.23;;;19.50;;
8421;SDS011;4248;48.196;10.924;2023-03-02T13:05:26;38.07;;;22.00;;
8421;SDS011;4248;48.196;10.924;2023-03-02T13:07:57;44.40;;;21.30;;
8421;SDS011;4248;48.196;10.924;2023-03-02T13:10:37;35.83;;;20.03;;
8421;SDS011;4248;48.196;10.924;2023-03-02T13:13:13;39.77;;;21.37;;
8421;SDS011;4248;48.196;10.924;2023-03-02T13:15:48;41.37;;;21.23;;
8421;SDS011;4248;48.196;10.924;2023-03-02T13:18:18;36.83;;;21.80;;
8421;SDS011;4248;48.196;10.924;2023-03-02T13:20:46;36.37;;;21.40;;
8421;SDS011;4248;48.196;10.924;2023-03-02T13:23:14;41.27;;;23.80;;
8421;SDS011;4248;48.196;10.924;2023-03-02T13:25:48;37.73;;;20.10;;
8421;SDS011;4248;48.196;10.924;2023-03-02T13:28:34;43.83;;;21.87;;
8421;SDS011;4248;48.196;10.924;2023-03-02T13:31:02;39.17;;;21.23;;
8421;SDS011;4248;48.196;10.924;2023-03-02T13:33:32;39.20;;;21.00;;
8421;SDS011;4248;48.196;10.924;2023-03-02T13:35:59;39.93;;;20.30;;
8421;SDS011;4248;48.196;10.924;2023-03-02T13:38:28;37.87;;;20.97;;
8421;SDS011;4248;48.196;10.924;2023-03-02T13:40:57;35.70;;;20.00;;
8421;SDS011;4248;48.196;10.924;2023-03-02T13:48:23;38.10;;;20.60;;
8421;SDS011;4248;48.196;10.924;2023-03-02T13:50:58;43.93;;;21.23;;
8421;SDS011;4248;48.196;10.924;2023-03-02T13:53:37;36.63;;;20.70;;
8421;SDS011;4248;48.196;10.924;2023-03-02T13:56:04;45.37;;;20.80;;
8421;SDS011;4248;48.196;10.924;2023-03-02T13:58:30;37.63;;;20.37;;
8421;SDS011;4248;48.196;10.924;2023-03-02T14:01:03;41.53;;;21.30;;
8421;SDS011;4248;48.196;10.924;2023-03-02T14:03:29;47.50;;;23.20;;
8421;SDS011;4248;48.196;10.924;2023-03-02T14:05:57;54.93;;;25.97;;
8421;SDS011;4248;48.196;10.924;2023-03-02T14:08:23;38.80;;;21.57;;
8421;SDS011;4248;48.196;10.924;2023-03-02T14:10:50;38.40;;;20.93;;
8421;SDS011;4248;48.196;10.924;2023-03-02T14:13:25;34.63;;;20.10;;
8421;SDS011;4248;48.196;10.924;2023-03-02T14:16:01;37.40;;;21.17;;
8421;SDS011;4248;48.196;10.924;2023-03-02T14:18:32;37.23;;;20.20;;
8421;SDS011;4248;48.196;10.924;2023-03-02T14:21:05;39.37;;;21.07;;
8421;SDS011;4248;48.196;10.924;2023-03-02T14:23:44;38.73;;;20.63;;
8421;SDS011;4248;48.196;10.924;2023-03-02T14:26:16;37.00;;;20.17;;
8421;SDS011;4248;48.196;10.924;2023-03-02T14:29:02;40.43;;;21.63;;
8421;SDS011;4248;48.196;10.924;2023-03-02T14:31:37;39.30;;;20.90;;
8421;SDS011;4248;48.196;10.924;2023-03-02T14:34:03;39.90;;;21.00;;
8421;SDS011;4248;48.196;10.924;2023-03-02T14:36:30;40.43;;;23.30;;
8421;SDS011;4248;48.196;10.924;2023-03-02T14:38:59;41.73;;;23.17;;
8421;SDS011;4248;48.196;10.924;2023-03-02T14:41:27;46.80;;;22.40;;
8421;SDS011;4248;48.196;10.924;2023-03-02T14:43:52;44.20;;;23.07;;
8421;SDS011;4248;48.196;10.924;2023-03-02T14:46:18;48.90;;;22.43;;
8421;SDS011;4248;48.196;10.924;2023-03-02T14:48:44;44.07;;;23.97;;
8421;SDS011;4248;48.196;10.924;2023-03-02T14:51:25;39.97;;;20.73;;
8421;SDS011;4248;48.196;10.924;2023-03-02T14:53:54;47.70;;;23.77;;
8421;SDS011;4248;48.196;10.924;2023-03-02T14:56:23;42.77;;;21.67;;
8421;SDS011;4248;48.196;10.924;2023-03-02T14:58:49;41.77;;;21.43;;
8421;SDS011;4248;48.196;10.924;2023-03-02T15:01:15;40.20;;;21.93;;
8421;SDS011;4248;48.196;10.924;2023-03-02T15:03:42;40.33;;;21.83;;
8421;SDS011;4248;48.196;10.924;2023-03-02T15:08:45;47.20;;;22.40;;
8421;SDS011;4248;48.196;10.924;2023-03-02T15:11:10;48.13;;;22.70;;
8421;SDS011;4248;48.196;10.924;2023-03-02T15:13:36;45.17;;;23.53;;
8421;SDS011;4248;48.196;10.924;2023-03-02T15:16:01;42.20;;;22.40;;
8421;SDS011;4248;48.196;10.924;2023-03-02T15:18:27;42.43;;;21.23;;
8421;SDS011;4248;48.196;10.924;2023-03-02T15:20:53;42.67;;;22.50;;
8421;SDS011;4248;48.196;10.924;2023-03-02T15:23:18;49.30;;;22.83;;
8421;SDS011;4248;48.196;10.924;2023-03-02T15:25:44;48.17;;;22.57;;
8421;SDS011;4248;48.196;10.924;2023-03-02T15:28:09;43.80;;;22.87;;
8421;SDS011;4248;48.196;10.924;2023-03-02T15:30:35;41.77;;;22.57;;
8421;SDS011;4248;48.196;10.924;2023-03-02T15:33:00;44.33;;;22.33;;
8421;SDS011;4248;48.196;10.924;2023-03-02T15:35:26;48.13;;;23.00;;
8421;SDS011;4248;48.196;10.924;2023-03-02T15:37:53;46.43;;;23.37;;
8421;SDS011;4248;48.196;10.924;2023-03-02T15:40:22;50.60;;;24.30;;
8421;SDS011;4248;48.196;10.924;2023-03-02T15:42:47;42.27;;;22.77;;
8421;SDS011;4248;48.196;10.924;2023-03-02T15:45:13;46.67;;;23.60;;
8421;SDS011;4248;48.196;10.924;2023-03-02T15:47:39;52.67;;;25.20;;
8421;SDS011;4248;48.196;10.924;2023-03-02T15:50:04;44.93;;;23.57;;
8421;SDS011;4248;48.196;10.924;2023-03-02T15:52:30;44.80;;;22.43;;
8421;SDS011;4248;48.196;10.924;2023-03-02T15:54:56;50.00;;;22.73;;
8421;SDS011;4248;48.196;10.924;2023-03-02T15:57:21;51.43;;;24.53;;
8421;SDS011;4248;48.196;10.924;2023-03-02T15:59:47;46.23;;;23.00;;
8421;SDS011;4248;48.196;10.924;2023-03-02T16:02:12;51.47;;;23.00;;